createdAt,value
2022-08-01T00:02:45.529Z,4.22
2022-08-01T00:05:51.941Z,4.15
2022-08-01T00:08:59.026Z,4.90
2022-08-01T00:12:04.871Z,3.83
2022-08-01T00:15:10.825Z,3.22
2022-08-01T00:18:17.910Z,2.80
2022-08-01T00:21:23.873Z,2.55
2022-08-01T00:24:30.868Z,3.77
2022-08-01T00:27:40.503Z,4.28
2022-08-01T00:30:47.478Z,2.20
2022-08-01T00:33:52.928Z,6.17
2022-08-01T00:37:00.110Z,7.50
2022-08-01T00:40:06.995Z,4.42
2022-08-01T00:43:12.854Z,4.17
2022-08-01T00:46:21.469Z,2.72
2022-08-01T00:49:26.533Z,5.58
2022-08-01T00:52:32.572Z,3.87
2022-08-01T00:55:38.730Z,3.50
2022-08-01T00:58:44.278Z,5.80
2022-08-01T01:01:52.329Z,2.45
2022-08-01T01:05:00.101Z,5.60
2022-08-01T01:08:19.881Z,5.20
2022-08-01T01:11:33.209Z,5.95
2022-08-01T01:15:12.042Z,2.70
2022-08-01T01:18:28.128Z,5.10
2022-08-01T01:21:39.127Z,5.03
2022-08-01T01:24:51.631Z,6.58
2022-08-01T01:28:21.541Z,2.95
2022-08-01T01:31:30.065Z,5.05
2022-08-01T01:34:37.765Z,3.65
2022-08-01T01:37:45.085Z,2.85
2022-08-01T01:40:52.755Z,5.75
2022-08-01T01:43:52.354Z,3.70
2022-08-01T01:46:58.327Z,4.90
2022-08-01T01:50:04.171Z,5.97
2022-08-01T01:53:15.151Z,6.67
2022-08-01T01:56:18.027Z,5.50
2022-08-01T01:59:25.787Z,5.20
2022-08-01T02:02:30.486Z,3.70
2022-08-01T02:05:37.751Z,5.95
2022-08-01T02:08:44.228Z,3.85
2022-08-01T02:11:59.196Z,3.22
2022-08-01T02:15:01.369Z,5.20
2022-08-01T02:18:06.819Z,3.75
2022-08-01T02:21:12.066Z,2.77
2022-08-01T02:24:23.123Z,2.98
2022-08-01T02:27:41.492Z,3.12
2022-08-01T02:30:51.436Z,2.98
2022-08-01T02:34:01.035Z,4.72
2022-08-01T02:37:07.765Z,2.87
2022-08-01T02:40:14.369Z,2.87
2022-08-01T02:43:19.809Z,4.97
2022-08-01T02:46:28.297Z,5.72
2022-08-01T02:49:35.633Z,3.65
2022-08-01T02:52:43.234Z,3.35
2022-08-01T02:55:49.654Z,2.83
2022-08-01T02:58:56.444Z,9.30
2022-08-01T03:02:03.568Z,5.35
2022-08-01T03:05:10.553Z,5.78
2022-08-01T03:08:17.581Z,8.73
2022-08-01T03:11:24.165Z,5.85
2022-08-01T03:14:32.574Z,4.65
2022-08-01T03:17:39.768Z,5.55
2022-08-01T03:20:47.560Z,3.50
2022-08-01T03:23:55.240Z,6.25
2022-08-01T03:27:01.771Z,5.72
2022-08-01T03:30:07.199Z,3.72
2022-08-01T03:33:14.640Z,4.12
2022-08-01T03:36:21.255Z,11.75
2022-08-01T03:39:27.260Z,5.62
2022-08-01T03:42:39.436Z,5.40
2022-08-01T03:45:54.038Z,9.70
2022-08-01T03:49:03.915Z,6.03
2022-08-01T03:52:10.199Z,7.58
2022-08-01T03:55:20.358Z,4.30
2022-08-01T03:58:26.000Z,6.75
2022-08-01T04:01:32.661Z,5.60
2022-08-01T04:04:40.280Z,6.37
2022-08-01T04:07:48.618Z,4.85
2022-08-01T04:10:56.512Z,7.37
2022-08-01T04:14:03.577Z,3.65
2022-08-01T04:17:12.722Z,6.95
2022-08-01T04:20:19.189Z,8.73
2022-08-01T04:23:25.359Z,4.22
2022-08-01T04:26:32.746Z,6.58
2022-08-01T04:29:41.270Z,5.67
2022-08-01T04:32:53.312Z,10.28
2022-08-01T04:36:04.762Z,6.83
2022-08-01T04:39:16.765Z,4.65
2022-08-01T04:42:28.201Z,7.22
2022-08-01T04:45:29.714Z,4.60
2022-08-01T04:48:38.349Z,5.03
2022-08-01T04:51:43.861Z,4.35
2022-08-01T04:54:54.809Z,4.65
2022-08-01T04:58:05.126Z,4.20
2022-08-01T05:01:15.740Z,3.98
2022-08-01T05:04:21.451Z,3.95
2022-08-01T05:07:29.678Z,5.67
2022-08-01T05:10:35.587Z,5.85
2022-08-01T05:13:44.050Z,6.45
2022-08-01T05:16:51.173Z,5.70
2022-08-01T05:19:59.584Z,5.45
2022-08-01T05:23:06.087Z,8.88
2022-08-01T05:26:13.862Z,5.83
2022-08-01T05:29:21.091Z,6.78
2022-08-01T05:32:27.987Z,5.10
2022-08-01T05:35:48.351Z,3.33
2022-08-01T05:38:44.506Z,5.22
2022-08-01T05:41:50.588Z,5.97
2022-08-01T05:44:58.461Z,4.53
2022-08-01T05:48:06.073Z,5.55
2022-08-01T05:51:12.716Z,7.50
2022-08-01T05:54:19.369Z,7.17
2022-08-01T05:57:27.737Z,5.65
2022-08-01T06:00:35.792Z,6.58
2022-08-01T06:03:40.899Z,5.22
2022-08-01T06:06:49.083Z,4.53
2022-08-01T06:09:56.577Z,5.15
2022-08-01T06:13:02.383Z,4.08
2022-08-01T06:16:08.848Z,4.62
2022-08-01T06:19:15.107Z,5.62
2022-08-01T06:26:09.749Z,3.95
2022-08-01T06:29:16.114Z,4.95
2022-08-01T06:32:26.905Z,7.58
2022-08-01T06:35:30.774Z,4.62
2022-08-01T06:38:37.104Z,7.55
2022-08-01T06:41:44.306Z,6.78
2022-08-01T06:44:53.350Z,6.22
2022-08-01T06:48:00.049Z,6.92
2022-08-01T06:51:20.065Z,7.70
2022-08-01T06:54:25.061Z,5.35
2022-08-01T06:57:30.833Z,4.50
2022-08-01T07:00:40.904Z,5.37
2022-08-01T07:03:54.535Z,6.67
2022-08-01T07:06:56.375Z,7.42
2022-08-01T07:10:03.382Z,9.85
2022-08-01T07:13:09.851Z,9.73
2022-08-01T07:16:16.929Z,6.80
2022-08-01T07:19:25.538Z,9.13
2022-08-01T07:22:34.543Z,7.87
2022-08-01T07:25:42.239Z,4.97
2022-08-01T07:28:49.717Z,5.42
2022-08-01T07:31:55.038Z,4.92
2022-08-01T07:35:02.294Z,5.15
2022-08-01T07:38:12.825Z,6.72
2022-08-01T07:41:20.349Z,8.20
2022-08-01T07:44:30.066Z,8.68
2022-08-01T07:47:44.285Z,7.87
2022-08-01T07:50:51.088Z,7.65
2022-08-01T07:53:56.044Z,7.75
2022-08-01T07:57:01.213Z,9.50
2022-08-01T08:00:07.806Z,7.53
2022-08-01T08:03:13.130Z,6.55
2022-08-01T08:06:33.340Z,9.53
2022-08-01T08:09:38.752Z,6.08
2022-08-01T08:12:44.805Z,7.83
2022-08-01T08:15:51.585Z,6.40
2022-08-01T08:18:57.337Z,7.22
2022-08-01T08:22:03.156Z,8.60
2022-08-01T08:25:08.855Z,9.13
2022-08-01T08:28:14.445Z,8.40
2022-08-01T08:31:25.059Z,7.33
2022-08-01T08:34:32.121Z,7.35
2022-08-01T08:37:42.777Z,8.03
2022-08-01T08:40:47.868Z,9.25
2022-08-01T08:43:54.255Z,11.48
2022-08-01T08:47:05.716Z,8.00
2022-08-01T08:50:14.018Z,9.43
2022-08-01T08:53:21.707Z,11.80
2022-08-01T08:56:29.121Z,10.10
2022-08-01T08:59:34.438Z,8.05
2022-08-01T09:03:03.121Z,9.78
2022-08-01T09:06:11.330Z,8.30
2022-08-01T09:09:17.976Z,8.23
2022-08-01T09:12:23.847Z,10.82
2022-08-01T09:15:33.861Z,10.75
2022-08-01T09:18:56.738Z,8.20
2022-08-01T09:22:20.884Z,8.70
2022-08-01T09:25:29.649Z,8.03
2022-08-01T09:28:37.506Z,8.38
2022-08-01T09:31:47.590Z,14.40
2022-08-01T09:34:54.448Z,7.30
2022-08-01T09:38:02.645Z,9.20
2022-08-01T09:41:12.036Z,8.85
2022-08-01T09:44:18.133Z,7.95
2022-08-01T09:47:25.493Z,7.05
2022-08-01T09:50:31.115Z,7.12
2022-08-01T09:53:38.182Z,7.08
2022-08-01T09:56:44.154Z,7.85
2022-08-01T10:00:01.142Z,6.12
2022-08-01T10:03:10.045Z,5.60
2022-08-01T10:06:09.971Z,6.37
2022-08-01T10:09:17.966Z,6.25
2022-08-01T10:12:25.861Z,9.73
2022-08-01T10:15:37.071Z,8.30
2022-08-01T10:18:35.085Z,7.05
2022-08-01T10:21:54.716Z,7.12
2022-08-01T10:24:53.555Z,11.97
2022-08-01T10:28:01.341Z,5.58
2022-08-01T10:31:13.205Z,13.58
2022-08-01T10:34:23.692Z,9.03
2022-08-01T10:37:32.445Z,9.08
2022-08-01T10:40:38.454Z,6.75
2022-08-01T10:43:47.050Z,8.85
2022-08-01T10:46:59.412Z,5.70
2022-08-01T10:50:21.943Z,8.88
2022-08-01T10:53:42.262Z,5.75
2022-08-01T10:56:39.875Z,7.05
2022-08-01T10:59:50.093Z,8.55
2022-08-01T11:03:01.176Z,7.75
2022-08-01T11:06:06.993Z,6.83
2022-08-01T11:09:16.498Z,6.85
2022-08-01T11:12:30.453Z,9.18
2022-08-01T11:15:49.948Z,6.62
2022-08-01T11:18:46.419Z,6.35
2022-08-01T11:22:14.627Z,8.55
2022-08-01T11:26:06.012Z,7.10
2022-08-01T11:28:36.437Z,10.63
2022-08-01T11:31:45.313Z,7.70
2022-08-01T11:35:14.075Z,10.05
2022-08-01T11:38:41.528Z,8.55
2022-08-01T11:41:50.038Z,7.83
2022-08-01T11:45:03.876Z,6.67
2022-08-01T11:48:10.636Z,7.83
2022-08-01T11:51:21.522Z,7.47
2022-08-01T11:54:34.742Z,8.38
2022-08-01T11:57:42.514Z,9.18
2022-08-01T12:00:53.789Z,6.75
2022-08-01T12:07:07.961Z,6.97
2022-08-01T12:10:32.272Z,7.65
2022-08-01T12:13:40.848Z,9.23
2022-08-01T12:16:48.403Z,8.25
2022-08-01T12:19:54.697Z,12.68
2022-08-01T12:23:00.742Z,10.23
2022-08-01T12:26:25.821Z,7.17
2022-08-01T12:29:16.809Z,5.70
2022-08-01T12:32:47.778Z,7.25
2022-08-01T12:35:55.729Z,8.18
2022-08-01T12:39:06.839Z,11.65
2022-08-01T12:42:13.350Z,7.60
2022-08-01T12:45:20.437Z,7.40
2022-08-01T12:48:28.331Z,9.15
2022-08-01T12:51:33.039Z,12.13
2022-08-01T12:54:38.757Z,12.85
2022-08-01T12:57:45.135Z,7.53
2022-08-01T13:00:52.799Z,8.05
2022-08-01T13:04:14.855Z,6.58
2022-08-01T13:07:22.191Z,9.50
2022-08-01T13:10:28.348Z,8.70
2022-08-01T13:13:34.129Z,9.35
2022-08-01T13:16:56.295Z,10.35
2022-08-01T13:20:02.353Z,8.35
2022-08-01T13:23:09.557Z,10.08
2022-08-01T13:26:17.824Z,7.62
2022-08-01T13:29:28.438Z,7.72
2022-08-01T13:32:38.394Z,9.98
2022-08-01T13:35:44.475Z,9.98
2022-08-01T13:39:08.080Z,8.88
2022-08-01T13:42:18.413Z,9.65
2022-08-01T13:45:22.483Z,11.15
2022-08-01T13:48:32.319Z,7.17
2022-08-01T13:51:39.605Z,6.55
2022-08-01T13:54:46.940Z,9.40
2022-08-01T13:57:52.622Z,9.53
2022-08-01T14:01:00.665Z,12.33
2022-08-01T14:04:11.502Z,13.32
2022-08-01T14:07:21.158Z,10.30
2022-08-01T14:10:28.695Z,9.20
2022-08-01T14:13:36.896Z,7.03
2022-08-01T14:16:42.001Z,7.05
2022-08-01T14:19:48.263Z,9.98
2022-08-01T14:22:56.154Z,10.48
2022-08-01T14:26:08.201Z,15.05
2022-08-01T14:29:09.123Z,12.95
2022-08-01T14:32:15.524Z,7.87
2022-08-01T14:35:23.276Z,13.28
2022-08-01T14:38:33.557Z,8.85
2022-08-01T14:41:42.122Z,9.60
2022-08-01T14:44:49.761Z,8.65
2022-08-01T14:47:57.288Z,8.20
2022-08-01T14:51:03.810Z,13.40
2022-08-01T14:54:10.024Z,9.15
2022-08-01T14:57:15.742Z,10.55
2022-08-01T15:00:23.931Z,9.33
2022-08-01T15:03:30.900Z,10.98
2022-08-01T15:06:36.767Z,12.55
2022-08-01T15:09:43.592Z,10.50
2022-08-01T15:12:52.617Z,9.43
2022-08-01T15:16:00.022Z,9.25
2022-08-01T15:19:06.186Z,10.40
2022-08-01T15:22:17.076Z,15.13
2022-08-01T15:25:41.171Z,10.20
2022-08-01T15:28:42.976Z,9.80
2022-08-01T15:31:50.395Z,13.22
2022-08-01T15:35:00.047Z,10.32
2022-08-01T15:38:07.135Z,8.05
2022-08-01T15:41:16.081Z,12.47
2022-08-01T15:44:21.864Z,7.90
2022-08-01T15:47:28.394Z,8.03
2022-08-01T15:50:34.539Z,10.82
2022-08-01T15:53:40.278Z,9.70
2022-08-01T15:56:48.238Z,10.90
2022-08-01T15:59:57.833Z,10.13
2022-08-01T16:03:00.240Z,10.10
2022-08-01T16:06:07.725Z,15.10
2022-08-01T16:09:19.215Z,9.18
2022-08-01T16:12:20.872Z,8.45
2022-08-01T16:15:33.558Z,9.23
2022-08-01T16:18:33.794Z,9.10
2022-08-01T16:21:39.814Z,9.73
2022-08-01T16:24:44.871Z,9.68
2022-08-01T16:27:50.322Z,8.05
2022-08-01T16:31:14.910Z,13.35
2022-08-01T16:34:05.187Z,11.25
2022-08-01T16:37:11.647Z,9.70
2022-08-01T16:40:17.621Z,11.75
2022-08-01T16:43:24.199Z,8.90
2022-08-01T16:46:29.626Z,10.98
2022-08-01T16:49:38.236Z,8.80
2022-08-01T16:52:44.663Z,10.48
2022-08-01T16:55:53.953Z,14.00
2022-08-01T16:59:00.753Z,7.12
2022-08-01T17:02:07.021Z,7.03
2022-08-01T17:05:13.526Z,7.92
2022-08-01T17:08:24.406Z,9.73
2022-08-01T17:11:33.329Z,7.85
2022-08-01T17:14:40.730Z,8.05
2022-08-01T17:17:47.583Z,8.85
2022-08-01T17:20:54.100Z,8.90
2022-08-01T17:24:00.426Z,9.68
2022-08-01T17:27:12.744Z,8.78
2022-08-01T17:30:16.364Z,11.48
2022-08-01T17:33:22.247Z,9.43
2022-08-01T17:36:28.528Z,10.35
2022-08-01T17:39:38.996Z,12.10
2022-08-01T17:42:42.160Z,8.10
2022-08-01T17:45:50.988Z,12.63
2022-08-01T17:48:56.161Z,11.45
2022-08-01T17:52:02.451Z,8.85
2022-08-01T17:55:55.606Z,10.75
2022-08-01T17:58:49.670Z,7.80
2022-08-01T18:01:27.842Z,12.30
2022-08-01T18:04:35.760Z,9.25
2022-08-01T18:08:00.474Z,9.83
2022-08-01T18:10:51.661Z,9.90
2022-08-01T18:13:59.799Z,11.95
2022-08-01T18:17:06.016Z,11.20
2022-08-01T18:20:13.103Z,11.22
2022-08-01T18:23:19.761Z,12.63
2022-08-01T18:26:25.428Z,12.23
2022-08-01T18:29:47.099Z,14.07
2022-08-01T18:32:37.939Z,13.05
2022-08-01T18:35:51.908Z,10.82
2022-08-01T18:38:50.618Z,10.03
2022-08-01T18:42:00.765Z,16.52
2022-08-01T18:45:06.792Z,12.10
2022-08-01T18:48:12.361Z,16.02
2022-08-01T18:51:18.210Z,11.15
2022-08-01T18:54:24.078Z,10.70
2022-08-01T18:57:29.329Z,11.60
2022-08-01T19:00:34.181Z,12.90
2022-08-01T19:03:42.802Z,9.98
2022-08-01T19:06:47.949Z,11.45
2022-08-01T19:09:55.457Z,11.00
2022-08-01T19:13:03.313Z,9.35
2022-08-01T19:16:09.883Z,10.65
2022-08-01T19:19:27.450Z,11.65
2022-08-01T19:22:28.875Z,11.75
2022-08-01T19:25:34.158Z,10.20
2022-08-01T19:28:41.171Z,11.65
2022-08-01T19:31:49.215Z,11.40
2022-08-01T19:35:00.375Z,10.00
2022-08-01T19:38:07.876Z,11.88
2022-08-01T19:41:15.058Z,10.00
2022-08-01T19:44:22.365Z,9.18
2022-08-01T19:47:53.991Z,11.18
2022-08-01T19:50:35.256Z,9.68
2022-08-01T19:53:41.712Z,9.83
2022-08-01T19:56:52.529Z,12.20
2022-08-01T20:00:02.247Z,13.10
2022-08-01T20:03:08.620Z,10.80
2022-08-01T20:06:17.774Z,9.43
2022-08-01T20:09:24.737Z,10.18
2022-08-01T20:12:36.415Z,9.78
2022-08-01T20:15:42.828Z,11.10
2022-08-01T20:18:49.392Z,10.85
2022-08-01T20:22:04.128Z,14.05
2022-08-01T20:25:10.940Z,12.15
2022-08-01T20:28:18.236Z,12.88
2022-08-01T20:31:25.205Z,11.50
2022-08-01T20:34:37.171Z,11.45
2022-08-01T20:38:06.283Z,11.18
2022-08-01T20:40:54.783Z,10.90
2022-08-01T20:44:02.602Z,11.50
2022-08-01T20:47:10.002Z,8.93
2022-08-01T20:50:54.386Z,14.70
2022-08-01T20:53:43.213Z,10.48
2022-08-01T20:57:13.306Z,9.63
2022-08-01T21:00:21.776Z,8.45
2022-08-01T21:03:37.145Z,8.13
2022-08-01T21:06:47.825Z,9.60
2022-08-01T21:09:53.814Z,10.18
2022-08-01T21:13:20.971Z,7.72
2022-08-01T21:16:26.846Z,8.95
2022-08-01T21:19:38.630Z,7.35
2022-08-01T21:22:58.792Z,8.48
2022-08-01T21:26:03.931Z,7.60
2022-08-01T21:29:09.013Z,9.90
2022-08-01T21:32:21.068Z,9.38
2022-08-01T21:35:29.693Z,9.05
2022-08-01T21:38:35.334Z,9.70
2022-08-01T21:42:04.724Z,7.17
2022-08-01T21:44:48.690Z,11.18
2022-08-01T21:47:55.932Z,7.67
2022-08-01T21:51:19.747Z,9.15
2022-08-01T21:54:55.055Z,9.95
2022-08-01T21:58:29.800Z,8.23
2022-08-01T22:01:51.553Z,11.18
2022-08-01T22:05:13.507Z,9.63
2022-08-01T22:08:21.388Z,11.78
2022-08-01T22:11:28.900Z,9.25
2022-08-01T22:14:35.173Z,8.48
2022-08-01T22:17:41.334Z,9.25
2022-08-01T22:20:47.886Z,8.33
2022-08-01T22:23:52.906Z,11.28
2022-08-01T22:27:00.203Z,8.30
2022-08-01T22:30:19.549Z,9.35
2022-08-01T22:33:26.795Z,12.30
2022-08-01T22:36:33.534Z,9.58
2022-08-01T22:39:38.169Z,9.23
2022-08-01T22:43:00.283Z,12.33
2022-08-01T22:46:22.883Z,8.93
2022-08-01T22:49:38.542Z,11.22
2022-08-01T22:52:47.134Z,9.85
2022-08-01T22:55:59.361Z,9.83
2022-08-01T22:59:03.127Z,10.58
2022-08-01T23:02:08.908Z,10.40
2022-08-01T23:05:19.649Z,8.90
2022-08-01T23:08:24.472Z,12.45
2022-08-01T23:11:30.621Z,8.28
2022-08-01T23:14:35.483Z,9.13
2022-08-01T23:17:45.807Z,8.13
2022-08-01T23:20:51.384Z,9.38
2022-08-01T23:23:57.053Z,9.48
2022-08-01T23:27:01.911Z,8.68
2022-08-01T23:30:07.437Z,11.33
2022-08-01T23:33:14.871Z,8.23
2022-08-01T23:36:21.946Z,7.62
2022-08-01T23:39:27.275Z,9.43
2022-08-01T23:42:34.240Z,7.72
2022-08-01T23:46:03.247Z,6.95
2022-08-01T23:48:48.902Z,9.18
2022-08-01T23:51:56.633Z,10.45
2022-08-01T23:55:03.458Z,7.65
2022-08-01T23:58:10.406Z,9.58
